Water Valley, Texas
Current Conditions -  °F | °C
As of 10:51 PM on Wednesday 22 Oct 2014 (Local Time) from KSJT Reporting Station
Overcast Overcast  
Wind Chill: 17°   Ceiling: 4900
Heat Index: 17°   Visibility: 10mi
Dew Point: 14°   Wind: 7mph
Humidity: 81%   Direction: 220°SW
Pressure: 30.13"   Gusts: NA
Location:  31.67°N, 100.72°W
Report Text: KSJT 230351Z AUTO 22006KT 10SM BKN049 OVC100 17/14 A3013 RMK AO2 SLP192 T01720139
Loading
Personal Weather Stations






























Interactive Weather Map
Tropical Storm Tracking
New forecast layout! Learn more

10-Day Weather Forecast

Advertisements
Track Severe Weather on mobile